sensor_id;sensor_type;location;lat;lon;timestamp;P1;durP1;ratioP1;P2;durP2;ratioP2
52554;SDS011;38455;52.710;6.502;2022-08-02T00:02:19;9.02;;;2.75;;
52554;SDS011;38455;52.710;6.502;2022-08-02T00:04:45;7.88;;;2.38;;
52554;SDS011;38455;52.710;6.502;2022-08-02T00:07:11;5.53;;;3.05;;
52554;SDS011;38455;52.710;6.502;2022-08-02T00:09:36;5.43;;;3.70;;
52554;SDS011;38455;52.710;6.502;2022-08-02T00:12:02;5.53;;;2.25;;
52554;SDS011;38455;52.710;6.502;2022-08-02T00:14:28;7.45;;;2.40;;
52554;SDS011;38455;52.710;6.502;2022-08-02T00:16:54;5.07;;;2.53;;
52554;SDS011;38455;52.710;6.502;2022-08-02T00:19:20;3.95;;;2.00;;
52554;SDS011;38455;52.710;6.502;2022-08-02T00:21:46;12.07;;;3.45;;
52554;SDS011;38455;52.710;6.502;2022-08-02T00:24:11;6.45;;;2.28;;
52554;SDS011;38455;52.710;6.502;2022-08-02T00:26:37;5.55;;;2.10;;
52554;SDS011;38455;52.710;6.502;2022-08-02T00:29:03;4.28;;;2.40;;
52554;SDS011;38455;52.710;6.502;2022-08-02T00:31:29;6.80;;;2.55;;
52554;SDS011;38455;52.710;6.502;2022-08-02T00:33:54;4.72;;;2.17;;
52554;SDS011;38455;52.710;6.502;2022-08-02T00:36:20;3.88;;;2.15;;
52554;SDS011;38455;52.710;6.502;2022-08-02T00:38:46;6.88;;;2.60;;
52554;SDS011;38455;52.710;6.502;2022-08-02T00:41:16;7.00;;;2.33;;
52554;SDS011;38455;52.710;6.502;2022-08-02T00:43:44;6.00;;;2.20;;
52554;SDS011;38455;52.710;6.502;2022-08-02T00:46:11;7.50;;;2.65;;
52554;SDS011;38455;52.710;6.502;2022-08-02T00:48:38;4.75;;;2.50;;
52554;SDS011;38455;52.710;6.502;2022-08-02T00:51:03;6.35;;;2.55;;
52554;SDS011;38455;52.710;6.502;2022-08-02T00:53:29;4.75;;;2.70;;
52554;SDS011;38455;52.710;6.502;2022-08-02T00:55:55;7.75;;;2.83;;
52554;SDS011;38455;52.710;6.502;2022-08-02T00:58:21;5.35;;;2.42;;
52554;SDS011;38455;52.710;6.502;2022-08-02T01:00:46;7.43;;;3.08;;
52554;SDS011;38455;52.710;6.502;2022-08-02T01:03:12;8.82;;;2.78;;
52554;SDS011;38455;52.710;6.502;2022-08-02T01:05:38;6.57;;;2.70;;
52554;SDS011;38455;52.710;6.502;2022-08-02T01:08:04;5.38;;;3.50;;
52554;SDS011;38455;52.710;6.502;2022-08-02T01:10:30;6.95;;;3.20;;
52554;SDS011;38455;52.710;6.502;2022-08-02T01:12:55;8.57;;;3.40;;
52554;SDS011;38455;52.710;6.502;2022-08-02T01:15:21;8.38;;;2.70;;
52554;SDS011;38455;52.710;6.502;2022-08-02T01:17:55;8.02;;;3.78;;
52554;SDS011;38455;52.710;6.502;2022-08-02T01:31:37;8.05;;;3.53;;
52554;SDS011;38455;52.710;6.502;2022-08-02T01:34:33;10.80;;;3.63;;
52554;SDS011;38455;52.710;6.502;2022-08-02T01:37:15;10.75;;;3.90;;
52554;SDS011;38455;52.710;6.502;2022-08-02T01:39:45;9.93;;;3.58;;
52554;SDS011;38455;52.710;6.502;2022-08-02T01:42:14;10.18;;;3.67;;
52554;SDS011;38455;52.710;6.502;2022-08-02T01:44:42;12.32;;;3.72;;
52554;SDS011;38455;52.710;6.502;2022-08-02T01:47:13;7.65;;;4.10;;
52554;SDS011;38455;52.710;6.502;2022-08-02T01:49:45;10.13;;;4.03;;
52554;SDS011;38455;52.710;6.502;2022-08-02T01:52:14;10.73;;;3.72;;
52554;SDS011;38455;52.710;6.502;2022-08-02T01:54:48;7.45;;;3.40;;
52554;SDS011;38455;52.710;6.502;2022-08-02T01:57:32;11.15;;;3.50;;
52554;SDS011;38455;52.710;6.502;2022-08-02T02:00:02;7.90;;;4.10;;
52554;SDS011;38455;52.710;6.502;2022-08-02T02:02:30;5.40;;;3.08;;
52554;SDS011;38455;52.710;6.502;2022-08-02T02:04:58;9.90;;;4.03;;
52554;SDS011;38455;52.710;6.502;2022-08-02T02:07:25;14.98;;;4.57;;
52554;SDS011;38455;52.710;6.502;2022-08-02T02:09:54;6.10;;;3.78;;
52554;SDS011;38455;52.710;6.502;2022-08-02T02:12:20;10.15;;;4.97;;
52554;SDS011;38455;52.710;6.502;2022-08-02T02:14:48;14.50;;;4.35;;
52554;SDS011;38455;52.710;6.502;2022-08-02T02:17:15;11.50;;;4.25;;
52554;SDS011;38455;52.710;6.502;2022-08-02T02:19:42;8.57;;;4.43;;
52554;SDS011;38455;52.710;6.502;2022-08-02T02:22:10;8.77;;;4.43;;
52554;SDS011;38455;52.710;6.502;2022-08-02T02:24:36;9.80;;;3.33;;
52554;SDS011;38455;52.710;6.502;2022-08-02T02:27:02;7.35;;;3.17;;
52554;SDS011;38455;52.710;6.502;2022-08-02T02:29:31;6.75;;;4.07;;
52554;SDS011;38455;52.710;6.502;2022-08-02T02:31:59;7.63;;;3.88;;
52554;SDS011;38455;52.710;6.502;2022-08-02T02:34:29;8.48;;;5.00;;
52554;SDS011;38455;52.710;6.502;2022-08-02T02:36:58;9.15;;;4.22;;
52554;SDS011;38455;52.710;6.502;2022-08-02T02:39:28;9.48;;;4.28;;
52554;SDS011;38455;52.710;6.502;2022-08-02T02:41:55;9.32;;;4.45;;
52554;SDS011;38455;52.710;6.502;2022-08-02T02:44:25;13.90;;;4.28;;
52554;SDS011;38455;52.710;6.502;2022-08-02T02:46:52;12.40;;;4.63;;
52554;SDS011;38455;52.710;6.502;2022-08-02T02:49:19;17.23;;;6.03;;
52554;SDS011;38455;52.710;6.502;2022-08-02T02:51:46;6.45;;;3.72;;
52554;SDS011;38455;52.710;6.502;2022-08-02T02:54:13;7.75;;;4.60;;
52554;SDS011;38455;52.710;6.502;2022-08-02T02:56:40;10.65;;;4.53;;
52554;SDS011;38455;52.710;6.502;2022-08-02T02:59:08;12.50;;;4.25;;
52554;SDS011;38455;52.710;6.502;2022-08-02T03:01:36;6.35;;;4.28;;
52554;SDS011;38455;52.710;6.502;2022-08-02T03:04:03;14.38;;;4.53;;
52554;SDS011;38455;52.710;6.502;2022-08-02T03:06:31;13.77;;;5.15;;
52554;SDS011;38455;52.710;6.502;2022-08-02T03:08:58;8.73;;;4.97;;
52554;SDS011;38455;52.710;6.502;2022-08-02T03:11:24;10.07;;;4.90;;
52554;SDS011;38455;52.710;6.502;2022-08-02T03:14:01;11.02;;;5.55;;
52554;SDS011;38455;52.710;6.502;2022-08-02T03:16:28;15.43;;;5.28;;
52554;SDS011;38455;52.710;6.502;2022-08-02T03:18:55;7.40;;;4.10;;
52554;SDS011;38455;52.710;6.502;2022-08-02T03:21:21;13.05;;;6.00;;
52554;SDS011;38455;52.710;6.502;2022-08-02T03:23:48;13.70;;;5.30;;
52554;SDS011;38455;52.710;6.502;2022-08-02T03:26:14;13.75;;;4.85;;
52554;SDS011;38455;52.710;6.502;2022-08-02T03:28:40;7.75;;;5.50;;
52554;SDS011;38455;52.710;6.502;2022-08-02T03:31:07;10.73;;;4.88;;
52554;SDS011;38455;52.710;6.502;2022-08-02T03:33:33;16.70;;;5.07;;
52554;SDS011;38455;52.710;6.502;2022-08-02T03:36:01;10.25;;;6.13;;
52554;SDS011;38455;52.710;6.502;2022-08-02T03:38:30;19.67;;;5.28;;
52554;SDS011;38455;52.710;6.502;2022-08-02T03:40:57;10.88;;;4.63;;
52554;SDS011;38455;52.710;6.502;2022-08-02T03:43:25;10.27;;;4.95;;
52554;SDS011;38455;52.710;6.502;2022-08-02T03:45:52;19.85;;;6.45;;
52554;SDS011;38455;52.710;6.502;2022-08-02T03:48:19;13.38;;;5.85;;
52554;SDS011;38455;52.710;6.502;2022-08-02T03:50:46;10.00;;;5.28;;
52554;SDS011;38455;52.710;6.502;2022-08-02T03:53:13;10.52;;;5.40;;
52554;SDS011;38455;52.710;6.502;2022-08-02T03:55:40;13.00;;;5.80;;
52554;SDS011;38455;52.710;6.502;2022-08-02T03:58:06;8.98;;;5.38;;
52554;SDS011;38455;52.710;6.502;2022-08-02T04:00:32;13.55;;;5.10;;
52554;SDS011;38455;52.710;6.502;2022-08-02T04:02:58;9.38;;;5.22;;
52554;SDS011;38455;52.710;6.502;2022-08-02T04:05:23;12.82;;;5.88;;
52554;SDS011;38455;52.710;6.502;2022-08-02T04:07:49;8.65;;;4.72;;
52554;SDS011;38455;52.710;6.502;2022-08-02T04:10:15;10.27;;;5.30;;
52554;SDS011;38455;52.710;6.502;2022-08-02T04:12:42;11.20;;;5.03;;
52554;SDS011;38455;52.710;6.502;2022-08-02T04:15:08;12.68;;;5.05;;
52554;SDS011;38455;52.710;6.502;2022-08-02T04:17:38;11.05;;;5.38;;
52554;SDS011;38455;52.710;6.502;2022-08-02T04:20:17;7.93;;;4.88;;
52554;SDS011;38455;52.710;6.502;2022-08-02T04:22:48;16.23;;;5.80;;
52554;SDS011;38455;52.710;6.502;2022-08-02T04:25:19;12.18;;;4.95;;
52554;SDS011;38455;52.710;6.502;2022-08-02T04:27:45;9.65;;;5.10;;
52554;SDS011;38455;52.710;6.502;2022-08-02T04:30:12;11.02;;;5.32;;
52554;SDS011;38455;52.710;6.502;2022-08-02T04:32:40;10.27;;;5.22;;
52554;SDS011;38455;52.710;6.502;2022-08-02T04:35:07;12.57;;;5.28;;
52554;SDS011;38455;52.710;6.502;2022-08-02T04:37:33;13.32;;;5.50;;
52554;SDS011;38455;52.710;6.502;2022-08-02T04:39:59;13.30;;;5.43;;
52554;SDS011;38455;52.710;6.502;2022-08-02T04:42:25;13.68;;;5.30;;
52554;SDS011;38455;52.710;6.502;2022-08-02T04:44:51;10.23;;;4.78;;
52554;SDS011;38455;52.710;6.502;2022-08-02T04:47:18;10.38;;;4.88;;
52554;SDS011;38455;52.710;6.502;2022-08-02T04:49:45;11.82;;;4.80;;
52554;SDS011;38455;52.710;6.502;2022-08-02T04:52:11;10.65;;;5.35;;
52554;SDS011;38455;52.710;6.502;2022-08-02T04:54:37;9.07;;;4.50;;
52554;SDS011;38455;52.710;6.502;2022-08-02T04:57:03;10.80;;;5.13;;
52554;SDS011;38455;52.710;6.502;2022-08-02T04:59:48;12.70;;;5.13;;
52554;SDS011;38455;52.710;6.502;2022-08-02T05:02:13;10.40;;;3.90;;
52554;SDS011;38455;52.710;6.502;2022-08-02T05:04:39;8.88;;;4.32;;
52554;SDS011;38455;52.710;6.502;2022-08-02T05:07:04;8.10;;;4.45;;
52554;SDS011;38455;52.710;6.502;2022-08-02T05:09:30;8.90;;;4.25;;
52554;SDS011;38455;52.710;6.502;2022-08-02T05:11:56;10.88;;;3.75;;
52554;SDS011;38455;52.710;6.502;2022-08-02T05:14:21;10.23;;;4.22;;
52554;SDS011;38455;52.710;6.502;2022-08-02T05:16:47;7.78;;;3.95;;
52554;SDS011;38455;52.710;6.502;2022-08-02T05:19:13;11.65;;;4.55;;
52554;SDS011;38455;52.710;6.502;2022-08-02T05:21:38;11.02;;;3.60;;
52554;SDS011;38455;52.710;6.502;2022-08-02T05:24:04;11.13;;;4.38;;
52554;SDS011;38455;52.710;6.502;2022-08-02T05:26:30;9.50;;;4.13;;
52554;SDS011;38455;52.710;6.502;2022-08-02T05:28:56;9.90;;;3.67;;
52554;SDS011;38455;52.710;6.502;2022-08-02T05:31:21;8.50;;;3.50;;
52554;SDS011;38455;52.710;6.502;2022-08-02T05:33:47;8.70;;;3.17;;
52554;SDS011;38455;52.710;6.502;2022-08-02T05:36:12;6.13;;;3.08;;
52554;SDS011;38455;52.710;6.502;2022-08-02T05:38:38;11.93;;;3.28;;
52554;SDS011;38455;52.710;6.502;2022-08-02T05:41:04;5.13;;;2.88;;
52554;SDS011;38455;52.710;6.502;2022-08-02T05:43:30;6.63;;;3.10;;
52554;SDS011;38455;52.710;6.502;2022-08-02T05:45:56;9.05;;;2.92;;
52554;SDS011;38455;52.710;6.502;2022-08-02T05:48:21;9.00;;;3.47;;
52554;SDS011;38455;52.710;6.502;2022-08-02T05:50:48;4.82;;;2.80;;
52554;SDS011;38455;52.710;6.502;2022-08-02T05:53:20;6.63;;;3.20;;
52554;SDS011;38455;52.710;6.502;2022-08-02T05:55:50;8.65;;;2.92;;
52554;SDS011;38455;52.710;6.502;2022-08-02T05:58:35;6.38;;;2.42;;
52554;SDS011;38455;52.710;6.502;2022-08-02T06:03:43;9.82;;;3.15;;
52554;SDS011;38455;52.710;6.502;2022-08-02T06:06:15;6.47;;;2.90;;
52554;SDS011;38455;52.710;6.502;2022-08-02T06:08:47;6.50;;;3.25;;
52554;SDS011;38455;52.710;6.502;2022-08-02T06:11:16;7.43;;;2.95;;
52554;SDS011;38455;52.710;6.502;2022-08-02T06:13:48;8.52;;;2.95;;
52554;SDS011;38455;52.710;6.502;2022-08-02T06:16:15;4.82;;;2.67;;
52554;SDS011;38455;52.710;6.502;2022-08-02T06:18:41;7.38;;;2.92;;
52554;SDS011;38455;52.710;6.502;2022-08-02T06:21:08;5.97;;;2.60;;
52554;SDS011;38455;52.710;6.502;2022-08-02T06:23:38;6.07;;;2.53;;
52554;SDS011;38455;52.710;6.502;2022-08-02T06:26:06;4.03;;;2.45;;
52554;SDS011;38455;52.710;6.502;2022-08-02T06:28:36;8.35;;;3.15;;
52554;SDS011;38455;52.710;6.502;2022-08-02T06:31:04;5.38;;;2.70;;
52554;SDS011;38455;52.710;6.502;2022-08-02T06:33:30;9.52;;;3.10;;
52554;SDS011;38455;52.710;6.502;2022-08-02T06:36:01;7.05;;;2.85;;
52554;SDS011;38455;52.710;6.502;2022-08-02T06:38:50;6.70;;;2.92;;
52554;SDS011;38455;52.710;6.502;2022-08-02T06:41:25;8.15;;;2.67;;
52554;SDS011;38455;52.710;6.502;2022-08-02T06:43:59;5.70;;;2.50;;
52554;SDS011;38455;52.710;6.502;2022-08-02T06:46:26;6.82;;;2.63;;
52554;SDS011;38455;52.710;6.502;2022-08-02T06:48:52;4.95;;;2.75;;
52554;SDS011;38455;52.710;6.502;2022-08-02T06:51:18;7.03;;;2.67;;
52554;SDS011;38455;52.710;6.502;2022-08-02T06:53:44;6.15;;;3.10;;
52554;SDS011;38455;52.710;6.502;2022-08-02T06:56:10;6.05;;;2.47;;
52554;SDS011;38455;52.710;6.502;2022-08-02T06:58:36;11.80;;;3.22;;
52554;SDS011;38455;52.710;6.502;2022-08-02T07:01:02;4.95;;;2.25;;
52554;SDS011;38455;52.710;6.502;2022-08-02T07:03:32;6.18;;;2.80;;
52554;SDS011;38455;52.710;6.502;2022-08-02T07:05:58;8.13;;;2.58;;
52554;SDS011;38455;52.710;6.502;2022-08-02T07:08:23;9.68;;;2.58;;
52554;SDS011;38455;52.710;6.502;2022-08-02T07:10:50;6.75;;;1.98;;
52554;SDS011;38455;52.710;6.502;2022-08-02T07:13:15;6.10;;;2.35;;
52554;SDS011;38455;52.710;6.502;2022-08-02T07:15:41;5.97;;;2.17;;
52554;SDS011;38455;52.710;6.502;2022-08-02T07:18:07;3.72;;;1.50;;
52554;SDS011;38455;52.710;6.502;2022-08-02T07:20:42;8.07;;;2.42;;
52554;SDS011;38455;52.710;6.502;2022-08-02T07:23:08;5.68;;;1.90;;
52554;SDS011;38455;52.710;6.502;2022-08-02T07:25:33;2.63;;;1.92;;
52554;SDS011;38455;52.710;6.502;2022-08-02T07:27:59;10.43;;;2.10;;
52554;SDS011;38455;52.710;6.502;2022-08-02T07:30:25;5.85;;;1.75;;
52554;SDS011;38455;52.710;6.502;2022-08-02T07:32:50;5.55;;;1.80;;
52554;SDS011;38455;52.710;6.502;2022-08-02T07:35:16;4.80;;;1.90;;
52554;SDS011;38455;52.710;6.502;2022-08-02T07:37:42;14.85;;;2.33;;
52554;SDS011;38455;52.710;6.502;2022-08-02T07:40:10;4.47;;;1.67;;
52554;SDS011;38455;52.710;6.502;2022-08-02T07:42:37;5.40;;;1.70;;
52554;SDS011;38455;52.710;6.502;2022-08-02T07:45:03;5.18;;;1.95;;
52554;SDS011;38455;52.710;6.502;2022-08-02T07:47:29;6.47;;;1.90;;
52554;SDS011;38455;52.710;6.502;2022-08-02T07:49:54;6.78;;;1.83;;
52554;SDS011;38455;52.710;6.502;2022-08-02T07:52:20;8.18;;;2.20;;
52554;SDS011;38455;52.710;6.502;2022-08-02T07:54:45;6.80;;;1.92;;
52554;SDS011;38455;52.710;6.502;2022-08-02T07:57:11;6.70;;;1.73;;
52554;SDS011;38455;52.710;6.502;2022-08-02T07:59:37;5.93;;;1.77;;
52554;SDS011;38455;52.710;6.502;2022-08-02T08:02:02;6.07;;;2.00;;
52554;SDS011;38455;52.710;6.502;2022-08-02T08:04:28;11.75;;;1.50;;
52554;SDS011;38455;52.710;6.502;2022-08-02T08:06:54;4.80;;;2.00;;
52554;SDS011;38455;52.710;6.502;2022-08-02T08:09:20;6.55;;;1.60;;
52554;SDS011;38455;52.710;6.502;2022-08-02T08:11:46;4.53;;;1.73;;
52554;SDS011;38455;52.710;6.502;2022-08-02T08:14:12;2.75;;;1.52;;
52554;SDS011;38455;52.710;6.502;2022-08-02T08:16:37;5.10;;;1.73;;
52554;SDS011;38455;52.710;6.502;2022-08-02T08:19:03;3.42;;;1.30;;
52554;SDS011;38455;52.710;6.502;2022-08-02T08:21:29;3.38;;;1.40;;
52554;SDS011;38455;52.710;6.502;2022-08-02T08:23:55;2.70;;;1.05;;
52554;SDS011;38455;52.710;6.502;2022-08-02T08:26:20;3.58;;;1.40;;
52554;SDS011;38455;52.710;6.502;2022-08-02T08:28:46;2.95;;;1.40;;
52554;SDS011;38455;52.710;6.502;2022-08-02T08:31:12;4.32;;;1.42;;
52554;SDS011;38455;52.710;6.502;2022-08-02T08:33:38;3.38;;;1.20;;
52554;SDS011;38455;52.710;6.502;2022-08-02T08:36:03;3.75;;;1.10;;
52554;SDS011;38455;52.710;6.502;2022-08-02T08:38:29;3.25;;;1.00;;
52554;SDS011;38455;52.710;6.502;2022-08-02T08:40:55;4.95;;;1.08;;
52554;SDS011;38455;52.710;6.502;2022-08-02T08:43:20;2.67;;;1.00;;
52554;SDS011;38455;52.710;6.502;2022-08-02T08:45:47;1.98;;;0.80;;
52554;SDS011;38455;52.710;6.502;2022-08-02T08:48:13;2.53;;;1.30;;
52554;SDS011;38455;52.710;6.502;2022-08-02T08:50:48;3.97;;;1.10;;
52554;SDS011;38455;52.710;6.502;2022-08-02T08:53:17;4.10;;;1.27;;
52554;SDS011;38455;52.710;6.502;2022-08-02T08:55:45;3.20;;;1.15;;
52554;SDS011;38455;52.710;6.502;2022-08-02T08:58:11;2.30;;;1.27;;
52554;SDS011;38455;52.710;6.502;2022-08-02T09:00:38;4.57;;;1.70;;
52554;SDS011;38455;52.710;6.502;2022-08-02T09:03:08;3.50;;;1.58;;
52554;SDS011;38455;52.710;6.502;2022-08-02T09:05:35;3.38;;;1.35;;
52554;SDS011;38455;52.710;6.502;2022-08-02T09:08:02;6.30;;;2.03;;
52554;SDS011;38455;52.710;6.502;2022-08-02T09:15:38;4.05;;;1.50;;
52554;SDS011;38455;52.710;6.502;2022-08-02T09:18:05;4.38;;;1.50;;
52554;SDS011;38455;52.710;6.502;2022-08-02T09:20:33;3.88;;;1.40;;
52554;SDS011;38455;52.710;6.502;2022-08-02T09:23:05;3.80;;;1.30;;
52554;SDS011;38455;52.710;6.502;2022-08-02T09:25:35;4.68;;;1.80;;
52554;SDS011;38455;52.710;6.502;2022-08-02T09:28:05;3.13;;;1.30;;
52554;SDS011;38455;52.710;6.502;2022-08-02T09:30:31;4.28;;;1.20;;
52554;SDS011;38455;52.710;6.502;2022-08-02T09:32:57;4.93;;;1.65;;
52554;SDS011;38455;52.710;6.502;2022-08-02T09:35:33;4.55;;;1.70;;
52554;SDS011;38455;52.710;6.502;2022-08-02T09:38:10;2.78;;;1.08;;
52554;SDS011;38455;52.710;6.502;2022-08-02T09:40:38;1.80;;;1.10;;
52554;SDS011;38455;52.710;6.502;2022-08-02T09:43:05;3.88;;;1.20;;
52554;SDS011;38455;52.710;6.502;2022-08-02T09:45:32;3.03;;;1.38;;
52554;SDS011;38455;52.710;6.502;2022-08-02T09:47:59;5.93;;;1.55;;
52554;SDS011;38455;52.710;6.502;2022-08-02T09:50:26;2.88;;;1.45;;
52554;SDS011;38455;52.710;6.502;2022-08-02T09:52:53;3.55;;;1.42;;
52554;SDS011;38455;52.710;6.502;2022-08-02T09:55:19;5.07;;;1.60;;
52554;SDS011;38455;52.710;6.502;2022-08-02T09:57:45;4.13;;;1.60;;
52554;SDS011;38455;52.710;6.502;2022-08-02T10:00:11;2.15;;;1.30;;
52554;SDS011;38455;52.710;6.502;2022-08-02T10:02:37;5.53;;;1.30;;
52554;SDS011;38455;52.710;6.502;2022-08-02T10:05:03;2.97;;;1.55;;
52554;SDS011;38455;52.710;6.502;2022-08-02T10:07:29;5.97;;;2.00;;
52554;SDS011;38455;52.710;6.502;2022-08-02T10:09:55;3.53;;;1.50;;
52554;SDS011;38455;52.710;6.502;2022-08-02T10:12:21;5.65;;;1.67;;
52554;SDS011;38455;52.710;6.502;2022-08-02T10:14:48;3.85;;;1.88;;
52554;SDS011;38455;52.710;6.502;2022-08-02T10:17:16;3.10;;;1.45;;
52554;SDS011;38455;52.710;6.502;2022-08-02T10:19:44;3.97;;;1.70;;
52554;SDS011;38455;52.710;6.502;2022-08-02T10:22:12;3.65;;;2.08;;
52554;SDS011;38455;52.710;6.502;2022-08-02T10:24:40;3.08;;;2.13;;
52554;SDS011;38455;52.710;6.502;2022-08-02T10:27:06;5.40;;;1.88;;
52554;SDS011;38455;52.710;6.502;2022-08-02T10:29:39;5.00;;;1.80;;
52554;SDS011;38455;52.710;6.502;2022-08-02T10:32:08;3.35;;;1.73;;
52554;SDS011;38455;52.710;6.502;2022-08-02T10:35:20;5.15;;;1.77;;
52554;SDS011;38455;52.710;6.502;2022-08-02T10:37:34;2.22;;;1.60;;
52554;SDS011;38455;52.710;6.502;2022-08-02T10:40:03;4.85;;;1.52;;
52554;SDS011;38455;52.710;6.502;2022-08-02T10:42:44;3.00;;;1.80;;
52554;SDS011;38455;52.710;6.502;2022-08-02T10:45:16;4.03;;;1.67;;
52554;SDS011;38455;52.710;6.502;2022-08-02T10:53:29;2.83;;;1.25;;
52554;SDS011;38455;52.710;6.502;2022-08-02T10:55:57;2.65;;;1.15;;
52554;SDS011;38455;52.710;6.502;2022-08-02T10:58:25;3.67;;;1.73;;
52554;SDS011;38455;52.710;6.502;2022-08-02T11:01:02;2.92;;;1.45;;
52554;SDS011;38455;52.710;6.502;2022-08-02T11:03:48;3.15;;;1.27;;
52554;SDS011;38455;52.710;6.502;2022-08-02T11:06:14;2.45;;;1.52;;
52554;SDS011;38455;52.710;6.502;2022-08-02T11:08:39;3.20;;;1.33;;
52554;SDS011;38455;52.710;6.502;2022-08-02T11:13:57;4.80;;;2.08;;
52554;SDS011;38455;52.710;6.502;2022-08-02T11:19:22;3.53;;;1.52;;
52554;SDS011;38455;52.710;6.502;2022-08-02T11:24:44;1.83;;;0.90;;
52554;SDS011;38455;52.710;6.502;2022-08-02T11:27:16;8.23;;;1.20;;
52554;SDS011;38455;52.710;6.502;2022-08-02T11:29:45;2.05;;;0.70;;
52554;SDS011;38455;52.710;6.502;2022-08-02T11:32:14;1.67;;;0.90;;
52554;SDS011;38455;52.710;6.502;2022-08-02T11:34:41;1.00;;;0.80;;
52554;SDS011;38455;52.710;6.502;2022-08-02T11:37:09;2.00;;;0.95;;
52554;SDS011;38455;52.710;6.502;2022-08-02T11:39:35;1.77;;;0.93;;
52554;SDS011;38455;52.710;6.502;2022-08-02T11:42:01;3.10;;;1.10;;
52554;SDS011;38455;52.710;6.502;2022-08-02T11:44:28;2.10;;;1.27;;
52554;SDS011;38455;52.710;6.502;2022-08-02T11:47:02;4.80;;;1.50;;
52554;SDS011;38455;52.710;6.502;2022-08-02T11:49:28;1.55;;;1.05;;
52554;SDS011;38455;52.710;6.502;2022-08-02T11:54:34;2.80;;;1.10;;
52554;SDS011;38455;52.710;6.502;2022-08-02T11:57:08;1.67;;;1.17;;
52554;SDS011;38455;52.710;6.502;2022-08-02T11:59:38;3.30;;;1.48;;
52554;SDS011;38455;52.710;6.502;2022-08-02T12:02:05;2.30;;;1.60;;
52554;SDS011;38455;52.710;6.502;2022-08-02T12:04:31;2.25;;;1.30;;
52554;SDS011;38455;52.710;6.502;2022-08-02T12:06:57;3.03;;;1.38;;
52554;SDS011;38455;52.710;6.502;2022-08-02T12:09:26;1.92;;;1.27;;
52554;SDS011;38455;52.710;6.502;2022-08-02T12:11:53;3.05;;;1.60;;
52554;SDS011;38455;52.710;6.502;2022-08-02T12:14:19;3.58;;;1.60;;
52554;SDS011;38455;52.710;6.502;2022-08-02T12:16:46;3.17;;;1.70;;
52554;SDS011;38455;52.710;6.502;2022-08-02T12:19:31;4.20;;;2.00;;
52554;SDS011;38455;52.710;6.502;2022-08-02T12:24:50;2.03;;;0.98;;
52554;SDS011;38455;52.710;6.502;2022-08-02T12:29:56;2.65;;;0.88;;
52554;SDS011;38455;52.710;6.502;2022-08-02T12:32:24;2.35;;;0.98;;
52554;SDS011;38455;52.710;6.502;2022-08-02T12:37:42;1.90;;;1.17;;
52554;SDS011;38455;52.710;6.502;2022-08-02T12:40:23;1.60;;;1.10;;
52554;SDS011;38455;52.710;6.502;2022-08-02T12:42:52;1.80;;;1.00;;
52554;SDS011;38455;52.710;6.502;2022-08-02T12:45:19;1.50;;;0.77;;
52554;SDS011;38455;52.710;6.502;2022-08-02T12:47:46;1.30;;;0.82;;
52554;SDS011;38455;52.710;6.502;2022-08-02T12:50:15;2.75;;;0.90;;
52554;SDS011;38455;52.710;6.502;2022-08-02T12:52:41;3.78;;;0.90;;
52554;SDS011;38455;52.710;6.502;2022-08-02T12:55:17;1.45;;;0.80;;
52554;SDS011;38455;52.710;6.502;2022-08-02T12:57:51;2.38;;;0.93;;
52554;SDS011;38455;52.710;6.502;2022-08-02T13:00:37;4.03;;;1.27;;
52554;SDS011;38455;52.710;6.502;2022-08-02T13:03:04;2.40;;;0.80;;
52554;SDS011;38455;52.710;6.502;2022-08-02T13:05:32;1.77;;;1.30;;
52554;SDS011;38455;52.710;6.502;2022-08-02T13:07:59;2.22;;;1.40;;
52554;SDS011;38455;52.710;6.502;2022-08-02T13:10:26;4.10;;;1.30;;
52554;SDS011;38455;52.710;6.502;2022-08-02T13:12:51;2.95;;;1.30;;
52554;SDS011;38455;52.710;6.502;2022-08-02T13:15:17;2.42;;;1.30;;
52554;SDS011;38455;52.710;6.502;2022-08-02T13:17:44;4.03;;;1.50;;
52554;SDS011;38455;52.710;6.502;2022-08-02T13:20:10;6.70;;;1.55;;
52554;SDS011;38455;52.710;6.502;2022-08-02T13:22:38;3.40;;;1.60;;
52554;SDS011;38455;52.710;6.502;2022-08-02T13:25:05;3.22;;;1.65;;
52554;SDS011;38455;52.710;6.502;2022-08-02T13:27:31;3.75;;;1.52;;
52554;SDS011;38455;52.710;6.502;2022-08-02T13:29:58;2.45;;;1.70;;
52554;SDS011;38455;52.710;6.502;2022-08-02T13:32:24;3.35;;;1.92;;
52554;SDS011;38455;52.710;6.502;2022-08-02T13:34:52;5.07;;;1.85;;
52554;SDS011;38455;52.710;6.502;2022-08-02T13:37:19;5.95;;;1.80;;
52554;SDS011;38455;52.710;6.502;2022-08-02T13:39:45;3.65;;;2.03;;
52554;SDS011;38455;52.710;6.502;2022-08-02T13:42:10;4.25;;;2.50;;
52554;SDS011;38455;52.710;6.502;2022-08-02T13:44:36;3.30;;;2.38;;
52554;SDS011;38455;52.710;6.502;2022-08-02T13:47:02;4.00;;;2.05;;
52554;SDS011;38455;52.710;6.502;2022-08-02T13:49:28;2.83;;;2.10;;
52554;SDS011;38455;52.710;6.502;2022-08-02T13:51:54;8.30;;;1.98;;
52554;SDS011;38455;52.710;6.502;2022-08-02T13:54:20;3.55;;;2.30;;
52554;SDS011;38455;52.710;6.502;2022-08-02T13:56:45;4.90;;;2.58;;
52554;SDS011;38455;52.710;6.502;2022-08-02T13:59:12;5.50;;;2.70;;
52554;SDS011;38455;52.710;6.502;2022-08-02T14:01:38;5.10;;;2.50;;
52554;SDS011;38455;52.710;6.502;2022-08-02T14:04:04;3.70;;;2.40;;
52554;SDS011;38455;52.710;6.502;2022-08-02T14:06:29;4.80;;;2.50;;
52554;SDS011;38455;52.710;6.502;2022-08-02T14:08:55;5.72;;;2.50;;
52554;SDS011;38455;52.710;6.502;2022-08-02T14:11:21;4.45;;;2.45;;
52554;SDS011;38455;52.710;6.502;2022-08-02T14:13:46;3.97;;;2.22;;
52554;SDS011;38455;52.710;6.502;2022-08-02T14:16:12;3.35;;;2.67;;
52554;SDS011;38455;52.710;6.502;2022-08-02T14:18:38;4.22;;;2.65;;
52554;SDS011;38455;52.710;6.502;2022-08-02T14:21:03;4.05;;;2.15;;
52554;SDS011;38455;52.710;6.502;2022-08-02T14:23:29;6.15;;;2.97;;
52554;SDS011;38455;52.710;6.502;2022-08-02T14:25:56;4.03;;;2.65;;
52554;SDS011;38455;52.710;6.502;2022-08-02T14:28:22;4.20;;;2.65;;
52554;SDS011;38455;52.710;6.502;2022-08-02T14:30:48;5.63;;;2.65;;
52554;SDS011;38455;52.710;6.502;2022-08-02T14:33:14;4.82;;;3.10;;
52554;SDS011;38455;52.710;6.502;2022-08-02T14:35:39;5.15;;;2.38;;
52554;SDS011;38455;52.710;6.502;2022-08-02T14:38:05;3.22;;;2.00;;
52554;SDS011;38455;52.710;6.502;2022-08-02T14:40:31;2.95;;;2.03;;
52554;SDS011;38455;52.710;6.502;2022-08-02T14:42:58;3.90;;;2.35;;
52554;SDS011;38455;52.710;6.502;2022-08-02T14:45:24;6.18;;;2.53;;
52554;SDS011;38455;52.710;6.502;2022-08-02T14:47:53;5.45;;;2.20;;
52554;SDS011;38455;52.710;6.502;2022-08-02T14:50:18;3.28;;;2.20;;
52554;SDS011;38455;52.710;6.502;2022-08-02T14:52:44;3.63;;;2.15;;
52554;SDS011;38455;52.710;6.502;2022-08-02T14:55:10;3.85;;;2.58;;
52554;SDS011;38455;52.710;6.502;2022-08-02T14:57:36;3.28;;;1.80;;
52554;SDS011;38455;52.710;6.502;2022-08-02T15:00:02;3.83;;;2.33;;
52554;SDS011;38455;52.710;6.502;2022-08-02T15:02:28;4.60;;;2.30;;
52554;SDS011;38455;52.710;6.502;2022-08-02T15:04:54;2.95;;;2.10;;
52554;SDS011;38455;52.710;6.502;2022-08-02T15:07:20;3.83;;;2.17;;
52554;SDS011;38455;52.710;6.502;2022-08-02T15:09:46;4.93;;;2.10;;
52554;SDS011;38455;52.710;6.502;2022-08-02T15:12:11;3.58;;;1.80;;
52554;SDS011;38455;52.710;6.502;2022-08-02T15:14:38;3.65;;;1.92;;
52554;SDS011;38455;52.710;6.502;2022-08-02T15:17:04;4.18;;;1.80;;
52554;SDS011;38455;52.710;6.502;2022-08-02T15:19:30;1.90;;;1.40;;
52554;SDS011;38455;52.710;6.502;2022-08-02T15:21:56;4.53;;;1.83;;
52554;SDS011;38455;52.710;6.502;2022-08-02T15:24:22;3.67;;;1.77;;
52554;SDS011;38455;52.710;6.502;2022-08-02T15:26:48;5.95;;;1.70;;
52554;SDS011;38455;52.710;6.502;2022-08-02T15:29:15;2.75;;;1.63;;
52554;SDS011;38455;52.710;6.502;2022-08-02T15:31:41;2.67;;;1.70;;
52554;SDS011;38455;52.710;6.502;2022-08-02T15:34:07;5.60;;;1.98;;